createdAt,value
2018-04-15T00:01:49.207Z,100514.27
2018-04-15T00:04:16.815Z,100527.12
2018-04-15T00:06:44.465Z,100517.91
2018-04-15T00:09:12.112Z,100525.42
2018-04-15T00:11:39.795Z,100525.36
2018-04-15T00:14:07.396Z,100518.67
2018-04-15T00:16:35.026Z,100514.63
2018-04-15T00:19:02.629Z,100522.75
2018-04-15T00:21:30.241Z,100523.37
2018-04-15T00:23:57.851Z,100534.91
2018-04-15T00:26:25.445Z,100531.13
2018-04-15T00:28:53.035Z,100531.36
2018-04-15T00:31:20.648Z,100521.65
2018-04-15T00:33:48.241Z,100534.53
2018-04-15T00:36:15.862Z,100535.04
2018-04-15T00:38:43.488Z,100540.54
2018-04-15T00:41:11.110Z,100535.13
2018-04-15T00:43:38.717Z,100540.33
2018-04-15T00:46:06.319Z,100541.48
2018-04-15T00:48:33.957Z,100532.13
2018-04-15T00:51:01.557Z,100528.90
2018-04-15T00:53:40.942Z,100512.63
2018-04-15T00:56:08.584Z,100523.62
2018-04-15T00:58:36.195Z,100521.86
2018-04-15T01:01:03.813Z,100528.16
2018-04-15T01:03:31.425Z,100532.19
2018-04-15T01:05:59.065Z,100523.58
2018-04-15T01:08:26.661Z,100523.16
2018-04-15T01:10:54.277Z,100529.33
2018-04-15T01:13:21.888Z,100525.40
2018-04-15T01:15:49.521Z,100526.17
2018-04-15T01:18:17.151Z,100512.20
2018-04-15T01:20:44.769Z,100511.33
2018-04-15T01:23:12.364Z,100506.84
2018-04-15T01:25:39.957Z,100517.14
2018-04-15T01:28:07.572Z,100515.48
2018-04-15T01:30:35.217Z,100519.21
2018-04-15T01:33:02.801Z,100509.80
2018-04-15T01:35:30.406Z,100511.06
2018-04-15T01:37:58.037Z,100517.16
2018-04-15T01:40:25.677Z,100514.55
2018-04-15T01:42:53.380Z,100508.70
2018-04-15T01:45:21.047Z,100513.65
2018-04-15T01:47:48.717Z,100512.38
2018-04-15T01:50:16.329Z,100513.53
2018-04-15T01:52:43.957Z,100517.31
2018-04-15T01:55:11.597Z,100518.92
2018-04-15T01:57:39.197Z,100510.64
2018-04-15T02:00:06.785Z,100505.16
2018-04-15T02:02:34.387Z,100506.75
2018-04-15T02:05:01.989Z,100501.72
2018-04-15T02:07:29.585Z,100501.34
2018-04-15T02:09:57.181Z,100506.48
2018-04-15T02:12:24.802Z,100499.30
2018-04-15T02:14:52.396Z,100491.92
2018-04-15T02:17:20.033Z,100488.28
2018-04-15T02:19:47.668Z,100505.16
2018-04-15T02:22:15.253Z,100506.02
2018-04-15T02:24:42.845Z,100498.05
2018-04-15T02:27:10.511Z,100500.94
2018-04-15T02:29:38.133Z,100503.16
2018-04-15T02:32:05.742Z,100508.39
2018-04-15T02:34:33.336Z,100508.83
2018-04-15T02:37:00.969Z,100514.97
2018-04-15T02:39:28.615Z,100516.95
2018-04-15T02:41:56.280Z,100518.29
2018-04-15T02:44:23.877Z,100524.24
2018-04-15T02:46:51.517Z,100535.82
2018-04-15T02:49:19.102Z,100549.03
2018-04-15T02:51:46.711Z,100550.77
2018-04-15T02:54:14.341Z,100545.00
2018-04-15T02:56:41.947Z,100544.06
2018-04-15T02:59:09.541Z,100550.30
2018-04-15T03:01:37.146Z,100540.20
2018-04-15T03:04:04.827Z,100538.77
2018-04-15T03:06:32.461Z,100540.94
2018-04-15T03:09:00.054Z,100545.02
2018-04-15T03:11:27.654Z,100543.23
2018-04-15T03:13:55.253Z,100542.45
2018-04-15T03:16:22.901Z,100537.59
2018-04-15T03:18:50.503Z,100535.92
2018-04-15T03:21:18.102Z,100531.87
2018-04-15T03:23:45.698Z,100535.53
2018-04-15T03:26:13.314Z,100538.64
2018-04-15T03:28:40.901Z,100545.86
2018-04-15T03:31:08.533Z,100549.73
2018-04-15T03:33:36.132Z,100554.61
2018-04-15T03:36:03.741Z,100550.21
2018-04-15T03:38:31.349Z,100556.67
2018-04-15T03:40:58.941Z,100555.19
2018-04-15T03:43:26.562Z,100554.49
2018-04-15T03:45:54.189Z,100555.14
2018-04-15T03:48:21.792Z,100558.54
2018-04-15T03:50:49.393Z,100551.69
2018-04-15T03:53:16.985Z,100548.69
2018-04-15T03:55:44.593Z,100555.28
2018-04-15T03:58:12.197Z,100552.55
2018-04-15T04:00:39.796Z,100551.50
2018-04-15T04:03:07.416Z,100549.90
2018-04-15T04:05:35.009Z,100552.86
2018-04-15T04:08:02.611Z,100555.52
2018-04-15T04:10:30.208Z,100560.08
2018-04-15T04:12:57.827Z,100570.00
2018-04-15T04:15:25.453Z,100569.50
2018-04-15T04:18:04.768Z,100575.22
2018-04-15T04:20:44.092Z,100590.72
2018-04-15T04:23:23.356Z,100593.64
2018-04-15T04:26:03.621Z,100598.78
2018-04-15T04:28:31.217Z,100605.55
2018-04-15T04:30:58.834Z,100611.19
2018-04-15T04:33:26.439Z,100606.66
2018-04-15T04:35:54.061Z,100618.66
2018-04-15T04:38:21.661Z,100611.90
2018-04-15T04:40:49.328Z,100624.61
2018-04-15T04:43:16.943Z,100629.23
2018-04-15T04:45:44.550Z,100625.62
2018-04-15T04:48:12.169Z,100624.61
2018-04-15T04:50:39.757Z,100624.70
2018-04-15T04:53:07.390Z,100629.00
2018-04-15T04:55:35.013Z,100628.33
2018-04-15T04:58:02.613Z,100634.55
2018-04-15T05:00:30.275Z,100637.67
2018-04-15T05:02:57.868Z,100639.78
2018-04-15T05:05:25.467Z,100644.11
2018-04-15T05:07:53.127Z,100650.41
2018-04-15T05:10:20.721Z,100654.79
2018-04-15T05:12:48.361Z,100653.68
2018-04-15T05:15:15.953Z,100661.75
2018-04-15T05:17:43.550Z,100668.95
2018-04-15T05:20:11.196Z,100666.67
2018-04-15T05:22:38.797Z,100673.12
2018-04-15T05:25:06.441Z,100678.14
2018-04-15T05:27:34.077Z,100681.39
2018-04-15T05:30:01.713Z,100673.88
2018-04-15T05:32:29.315Z,100674.94
2018-04-15T05:34:56.961Z,100678.13
2018-04-15T05:37:24.561Z,100676.93
2018-04-15T05:39:52.165Z,100672.78
2018-04-15T05:42:19.765Z,100668.86
2018-04-15T05:44:47.413Z,100670.03
2018-04-15T05:47:14.996Z,100667.55
2018-04-15T05:49:42.613Z,100661.28
2018-04-15T05:52:10.243Z,100658.23
2018-04-15T05:54:37.865Z,100658.65
2018-04-15T05:57:05.492Z,100646.13
2018-04-15T05:59:33.112Z,100648.62
2018-04-15T06:02:00.709Z,100646.37
2018-04-15T06:04:28.297Z,100637.02
2018-04-15T06:06:55.930Z,100639.69
2018-04-15T06:09:23.526Z,100645.73
2018-04-15T06:11:51.121Z,100662.22
2018-04-15T06:14:18.721Z,100661.06
2018-04-15T06:16:46.321Z,100661.91
2018-04-15T06:19:13.995Z,100663.77
2018-04-15T06:21:41.621Z,100662.14
2018-04-15T06:24:09.219Z,100656.87
2018-04-15T06:26:36.857Z,100660.08
2018-04-15T06:29:04.489Z,100666.38
2018-04-15T06:31:32.097Z,100680.40
2018-04-15T06:33:59.689Z,100685.63
2018-04-15T06:36:27.321Z,100683.44
2018-04-15T06:38:54.918Z,100687.85
2018-04-15T06:41:22.529Z,100684.92
2018-04-15T06:43:50.121Z,100689.07
2018-04-15T06:46:18.470Z,100703.02
2018-04-15T06:48:46.073Z,100708.09
2018-04-15T06:51:13.757Z,100707.06
2018-04-15T06:53:41.365Z,100715.29
2018-04-15T06:56:09.001Z,100722.33
2018-04-15T06:58:36.638Z,100718.67
2018-04-15T07:01:04.238Z,100717.25
2018-04-15T07:03:31.841Z,100720.45
2018-04-15T07:05:59.469Z,100722.58
2018-04-15T07:08:27.057Z,100718.82
2018-04-15T07:10:54.661Z,100721.45
2018-04-15T07:13:22.306Z,100725.81
2018-04-15T07:15:49.927Z,100732.69
2018-04-15T07:18:17.541Z,100735.15
2018-04-15T07:20:45.161Z,100738.18
2018-04-15T07:23:12.758Z,100734.36
2018-04-15T07:25:40.395Z,100733.27
2018-04-15T07:28:08.026Z,100730.23
2018-04-15T07:30:35.636Z,100732.47
2018-04-15T07:33:03.248Z,100736.59
2018-04-15T07:35:30.929Z,100739.69
2018-04-15T07:37:58.581Z,100751.91
2018-04-15T07:40:26.192Z,100749.61
2018-04-15T07:42:53.806Z,100748.44
2018-04-15T07:45:21.460Z,100744.35
2018-04-15T07:47:49.286Z,100747.59
2018-04-15T07:50:17.298Z,100741.33
2018-04-15T07:52:44.919Z,100751.45
2018-04-15T07:55:12.530Z,100744.09
2018-04-15T07:57:40.129Z,100747.88
2018-04-15T08:00:07.745Z,100741.44
2018-04-15T08:02:35.386Z,100741.16
2018-04-15T08:05:02.984Z,100743.77
2018-04-15T08:07:30.615Z,100740.03
2018-04-15T08:09:58.257Z,100746.70
2018-04-15T08:12:25.892Z,100738.03
2018-04-15T08:14:53.513Z,100732.55
2018-04-15T08:17:21.114Z,100729.56
2018-04-15T08:19:48.769Z,100726.21
2018-04-15T08:22:16.377Z,100728.53
2018-04-15T08:24:43.969Z,100729.68
2018-04-15T08:27:11.620Z,100730.98
2018-04-15T08:29:39.229Z,100727.84
2018-04-15T08:32:06.840Z,100730.45
2018-04-15T08:34:34.436Z,100727.06
2018-04-15T08:37:02.069Z,100730.55
2018-04-15T08:39:29.661Z,100731.33
2018-04-15T08:41:57.260Z,100720.40
2018-04-15T08:44:24.940Z,100726.61
2018-04-15T08:46:52.540Z,100719.12
2018-04-15T08:49:20.155Z,100720.49
2018-04-15T08:51:47.757Z,100724.05
2018-04-15T08:54:15.382Z,100725.42
2018-04-15T08:56:42.976Z,100735.03
2018-04-15T08:59:10.569Z,100737.38
2018-04-15T09:01:38.177Z,100733.13
2018-04-15T09:04:05.769Z,100728.63
2018-04-15T09:06:33.396Z,100729.00
2018-04-15T09:09:01.015Z,100721.55
2018-04-15T09:11:28.618Z,100712.20
2018-04-15T09:13:56.250Z,100705.11
2018-04-15T09:16:23.837Z,100699.08
2018-04-15T09:18:51.441Z,100694.89
2018-04-15T09:21:19.041Z,100690.17
2018-04-15T09:23:46.675Z,100685.42
2018-04-15T09:26:14.261Z,100684.87
2018-04-15T09:28:41.873Z,100679.32
2018-04-15T09:31:12.225Z,100674.55
2018-04-15T09:33:39.819Z,100667.87
2018-04-15T09:36:07.429Z,100666.52
2018-04-15T09:38:35.033Z,100670.69
2018-04-15T09:41:02.672Z,100662.03
2018-04-15T09:43:30.292Z,100658.07
2018-04-15T09:45:57.888Z,100648.19
2018-04-15T09:48:25.490Z,100651.06
2018-04-15T09:50:53.121Z,100655.08
2018-04-15T09:53:20.721Z,100651.98
2018-04-15T09:55:48.318Z,100650.11
2018-04-15T09:58:15.949Z,100646.91
2018-04-15T10:00:43.573Z,100642.09
2018-04-15T10:03:11.233Z,100639.44
2018-04-15T10:05:38.905Z,100630.20
2018-04-15T10:08:06.538Z,100623.56
2018-04-15T10:10:34.180Z,100623.09
2018-04-15T10:13:01.786Z,100618.81
2018-04-15T10:15:29.453Z,100615.18
2018-04-15T10:17:57.077Z,100615.09
2018-04-15T10:20:24.691Z,100611.74
2018-04-15T10:22:52.320Z,100616.72
2018-04-15T10:25:20.016Z,100617.94
2018-04-15T10:27:47.613Z,100611.45
2018-04-15T10:30:15.281Z,100604.13
2018-04-15T10:32:42.923Z,100597.16
2018-04-15T10:35:10.568Z,100600.50
2018-04-15T10:37:38.181Z,100594.94
2018-04-15T10:40:05.851Z,100598.06
2018-04-15T10:42:33.578Z,100601.91
2018-04-15T10:45:01.175Z,100600.25
2018-04-15T10:47:28.757Z,100596.66
2018-04-15T10:49:56.404Z,100594.48
2018-04-15T10:52:24.009Z,100586.86
2018-04-15T10:54:51.597Z,100582.20
2018-04-15T10:57:19.219Z,100580.31
2018-04-15T10:59:46.814Z,100583.05
2018-04-15T11:02:14.410Z,100580.45
2018-04-15T11:04:42.041Z,100585.38
2018-04-15T11:07:09.649Z,100580.81
2018-04-15T11:09:37.251Z,100574.31
2018-04-15T11:12:04.849Z,100575.55
2018-04-15T11:14:32.450Z,100574.41
2018-04-15T11:17:00.049Z,100567.02
2018-04-15T11:19:27.649Z,100570.38
2018-04-15T11:21:55.305Z,100566.63
2018-04-15T11:24:22.912Z,100558.87
2018-04-15T11:26:50.535Z,100563.25
2018-04-15T11:29:18.129Z,100550.41
2018-04-15T11:31:45.730Z,100549.20
2018-04-15T11:34:13.342Z,100555.44
2018-04-15T11:36:40.975Z,100546.48
2018-04-15T11:39:08.581Z,100547.45
2018-04-15T11:41:36.169Z,100539.52
2018-04-15T11:44:03.783Z,100530.26
2018-04-15T11:46:31.389Z,100531.48
2018-04-15T11:48:59.031Z,100525.44
2018-04-15T11:51:26.662Z,100528.03
2018-04-15T11:53:54.262Z,100534.33
2018-04-15T11:56:21.898Z,100525.34
2018-04-15T11:58:49.581Z,100524.94
2018-04-15T12:01:17.185Z,100518.50
2018-04-15T12:03:44.842Z,100517.38
2018-04-15T12:06:12.451Z,100516.91
2018-04-15T12:08:40.041Z,100499.17
2018-04-15T12:11:07.679Z,100493.14
2018-04-15T12:13:35.286Z,100486.59
2018-04-15T12:16:03.730Z,100500.98
2018-04-15T12:18:31.761Z,100495.97
2018-04-15T12:20:59.370Z,100489.20
2018-04-15T12:23:27.001Z,100484.23
2018-04-15T12:25:54.627Z,100491.34
2018-04-15T12:28:22.218Z,100480.97
2018-04-15T12:30:53.734Z,100483.31
2018-04-15T12:33:21.338Z,100486.39
2018-04-15T12:35:48.968Z,100483.79
2018-04-15T12:38:16.657Z,100479.12
2018-04-15T12:40:44.390Z,100474.96
2018-04-15T12:43:12.009Z,100472.91
2018-04-15T12:45:40.125Z,100475.25
2018-04-15T12:48:07.772Z,100464.75
2018-04-15T12:50:35.380Z,100470.11
2018-04-15T12:53:02.990Z,100469.34
2018-04-15T12:55:30.637Z,100470.38
2018-04-15T12:57:58.237Z,100470.04
2018-04-15T13:00:25.849Z,100457.47
2018-04-15T13:02:53.441Z,100457.27
2018-04-15T13:05:21.073Z,100456.66
2018-04-15T13:07:48.677Z,100455.80
2018-04-15T13:10:16.929Z,100452.22
2018-04-15T13:12:44.558Z,100447.81
2018-04-15T13:15:12.181Z,100445.12
2018-04-15T13:17:39.794Z,100448.57
2018-04-15T13:20:07.397Z,100444.88
2018-04-15T13:22:34.997Z,100447.09
2018-04-15T13:25:02.629Z,100444.59
2018-04-15T13:27:30.266Z,100435.95
2018-04-15T13:29:57.862Z,100441.77
2018-04-15T13:32:25.477Z,100444.16
2018-04-15T13:34:53.085Z,100444.56
2018-04-15T13:37:20.677Z,100439.88
2018-04-15T13:39:48.281Z,100437.08
2018-04-15T13:42:15.897Z,100439.61
2018-04-15T13:44:43.551Z,100433.53
2018-04-15T13:47:11.173Z,100437.30
2018-04-15T13:49:38.770Z,100433.31
2018-04-15T13:52:06.453Z,100432.66
2018-04-15T13:54:34.072Z,100421.27
2018-04-15T13:57:01.683Z,100421.17
2018-04-15T13:59:29.317Z,100419.61
2018-04-15T14:01:56.915Z,100419.44
2018-04-15T14:04:24.514Z,100414.03
2018-04-15T14:06:52.116Z,100407.94
2018-04-15T14:09:19.833Z,100409.13
2018-04-15T14:11:47.494Z,100401.50
2018-04-15T14:14:15.086Z,100411.91
2018-04-15T14:16:42.725Z,100407.71
2018-04-15T14:19:10.324Z,100400.44
2018-04-15T14:21:37.921Z,100405.09
2018-04-15T14:24:05.599Z,100396.03
2018-04-15T14:26:33.242Z,100392.38
2018-04-15T14:29:00.849Z,100392.93
2018-04-15T14:31:28.501Z,100387.75
2018-04-15T14:33:56.099Z,100378.84
2018-04-15T14:36:23.699Z,100380.26
2018-04-15T14:38:51.333Z,100382.75
2018-04-15T14:41:18.966Z,100371.44
2018-04-15T14:43:46.561Z,100369.59
2018-04-15T14:46:14.210Z,100365.08
2018-04-15T14:48:41.817Z,100366.16
2018-04-15T14:51:09.415Z,100372.17
2018-04-15T14:53:37.021Z,100375.35
2018-04-15T14:56:04.653Z,100371.45
2018-04-15T14:58:32.265Z,100373.63
2018-04-15T15:00:59.870Z,100373.95
2018-04-15T15:03:27.489Z,100377.58
2018-04-15T15:05:55.146Z,100382.95
2018-04-15T15:08:22.831Z,100387.95
2018-04-15T15:10:50.425Z,100392.39
2018-04-15T15:13:18.124Z,100388.66
2018-04-15T15:15:45.767Z,100385.68
2018-04-15T15:18:13.442Z,100381.58
2018-04-15T15:20:41.056Z,100382.94
2018-04-15T15:23:08.714Z,100383.37
2018-04-15T15:25:36.365Z,100386.22
2018-04-15T15:28:04.098Z,100381.94
2018-04-15T15:30:31.718Z,100391.80
2018-04-15T15:32:59.439Z,100393.13
2018-04-15T15:35:27.068Z,100395.28
2018-04-15T15:37:54.677Z,100399.99
2018-04-15T15:40:22.354Z,100398.61
2018-04-15T15:42:50.109Z,100402.91
2018-04-15T15:45:17.773Z,100398.94
2018-04-15T15:47:45.481Z,100396.39
2018-04-15T15:50:13.101Z,100398.15
2018-04-15T15:52:40.739Z,100399.05
2018-04-15T15:55:08.352Z,100393.28
2018-04-15T15:57:35.986Z,100390.70
2018-04-15T16:00:03.672Z,100389.13
2018-04-15T16:02:31.303Z,100392.87
2018-04-15T16:04:58.904Z,100390.84
2018-04-15T16:07:26.512Z,100389.33
2018-04-15T16:09:54.117Z,100387.14
2018-04-15T16:12:21.719Z,100382.00
2018-04-15T16:14:49.384Z,100384.95
2018-04-15T16:17:16.982Z,100379.78
2018-04-15T16:19:44.589Z,100374.89
2018-04-15T16:22:12.194Z,100382.34
2018-04-15T16:24:39.800Z,100377.69
2018-04-15T16:27:08.105Z,100377.22
2018-04-15T16:29:35.706Z,100379.51
2018-04-15T16:32:03.384Z,100371.42
2018-04-15T16:34:30.995Z,100367.99
2018-04-15T16:36:58.626Z,100363.97
2018-04-15T16:39:26.225Z,100376.28
2018-04-15T16:41:53.817Z,100366.37
2018-04-15T16:44:21.449Z,100368.12
2018-04-15T16:46:49.101Z,100368.36
2018-04-15T16:49:16.706Z,100364.38
2018-04-15T16:51:44.311Z,100363.89
2018-04-15T16:54:11.917Z,100363.91
2018-04-15T16:56:39.517Z,100364.91
2018-04-15T16:59:07.126Z,100364.77
2018-04-15T17:01:34.725Z,100359.10
2018-04-15T17:04:02.383Z,100354.12
2018-04-15T17:06:29.998Z,100355.06
2018-04-15T17:08:57.611Z,100352.37
2018-04-15T17:11:25.225Z,100360.06
2018-04-15T17:13:52.817Z,100361.66
2018-04-15T17:16:20.472Z,100364.61
2018-04-15T17:18:48.093Z,100364.28
2018-04-15T17:21:15.703Z,100364.23
2018-04-15T17:23:43.323Z,100364.08
2018-04-15T17:26:10.996Z,100367.83
2018-04-15T17:28:42.328Z,100360.92
2018-04-15T17:31:09.925Z,100368.53
2018-04-15T17:33:37.528Z,100360.94
2018-04-15T17:36:05.149Z,100363.02
2018-04-15T17:38:32.754Z,100368.17
2018-04-15T17:41:00.436Z,100370.16
2018-04-15T17:43:28.019Z,100377.66
2018-04-15T17:45:55.634Z,100376.61
2018-04-15T17:48:23.255Z,100373.30
2018-04-15T17:50:50.942Z,100375.84
2018-04-15T17:53:18.545Z,100368.09
2018-04-15T17:55:46.194Z,100375.43
2018-04-15T17:58:13.813Z,100371.95
2018-04-15T18:00:41.442Z,100370.86
2018-04-15T18:03:09.042Z,100368.73
2018-04-15T18:05:36.682Z,100360.38
2018-04-15T18:08:05.274Z,100361.53
2018-04-15T18:10:32.881Z,100356.53
2018-04-15T18:13:01.511Z,100359.28
2018-04-15T18:15:29.174Z,100362.70
2018-04-15T18:17:56.771Z,100370.88
2018-04-15T18:20:24.421Z,100375.00
2018-04-15T18:22:52.054Z,100377.45
2018-04-15T18:25:19.653Z,100379.73
2018-04-15T18:27:47.293Z,100388.47
2018-04-15T18:30:14.933Z,100392.89
2018-04-15T18:32:42.550Z,100389.98
2018-04-15T18:35:10.213Z,100387.83
2018-04-15T18:37:37.842Z,100385.63
2018-04-15T18:40:05.481Z,100393.34
2018-04-15T18:42:33.139Z,100395.17
2018-04-15T18:45:00.765Z,100400.97
2018-04-15T18:47:28.387Z,100396.63
2018-04-15T18:49:56.081Z,100392.66
2018-04-15T18:52:23.707Z,100392.97
2018-04-15T18:54:51.367Z,100394.83
2018-04-15T18:57:19.006Z,100395.04
2018-04-15T18:59:46.698Z,100397.61
2018-04-15T19:02:14.332Z,100403.47
2018-04-15T19:04:41.934Z,100407.48
2018-04-15T19:07:09.554Z,100396.16
2018-04-15T19:09:37.217Z,100391.90
2018-04-15T19:12:04.867Z,100396.53
2018-04-15T19:14:32.467Z,100390.39
2018-04-15T19:17:00.118Z,100386.43
2018-04-15T19:19:27.755Z,100386.97
2018-04-15T19:21:55.430Z,100397.83
2018-04-15T19:24:23.042Z,100383.08
2018-04-15T19:26:50.646Z,100382.98
2018-04-15T19:29:18.246Z,100383.14
2018-04-15T19:31:45.950Z,100377.82
2018-04-15T19:34:13.634Z,100375.20
2018-04-15T19:36:41.242Z,100375.02
2018-04-15T19:39:08.849Z,100375.50
2018-04-15T19:41:36.489Z,100371.98
2018-04-15T19:44:04.093Z,100361.50
2018-04-15T19:46:31.710Z,100365.56
2018-04-15T19:48:59.397Z,100372.02
2018-04-15T19:51:27.046Z,100358.55
2018-04-15T19:53:54.666Z,100369.41
2018-04-15T19:56:22.312Z,100354.73
2018-04-15T19:58:49.906Z,100355.28
2018-04-15T20:01:17.501Z,100364.28
2018-04-15T20:03:45.149Z,100360.06
2018-04-15T20:06:12.770Z,100361.31
2018-04-15T20:08:40.369Z,100367.77
2018-04-15T20:11:08.215Z,100370.94
2018-04-15T20:13:35.854Z,100374.36
2018-04-15T20:16:03.449Z,100376.41
2018-04-15T20:18:31.106Z,100386.78
2018-04-15T20:20:58.846Z,100384.30
2018-04-15T20:23:26.526Z,100388.48
2018-04-15T20:25:54.130Z,100392.66
2018-04-15T20:28:21.770Z,100392.44
2018-04-15T20:30:49.424Z,100389.72
2018-04-15T20:33:17.030Z,100391.75
2018-04-15T20:35:44.621Z,100393.19
2018-04-15T20:38:12.233Z,100401.42
2018-04-15T20:40:39.900Z,100397.53
2018-04-15T20:43:07.495Z,100389.12
2018-04-15T20:45:35.141Z,100385.27
2018-04-15T20:48:02.774Z,100382.73
2018-04-15T20:50:30.370Z,100384.70
2018-04-15T20:52:57.962Z,100380.94
2018-04-15T20:55:25.569Z,100377.42
2018-04-15T20:57:53.182Z,100379.63
2018-04-15T21:00:20.785Z,100373.77
2018-04-15T21:02:48.386Z,100366.54
2018-04-15T21:05:16.011Z,100380.98
2018-04-15T21:07:43.649Z,100383.25
2018-04-15T21:10:11.313Z,100382.34
2018-04-15T21:12:38.908Z,100381.91
2018-04-15T21:15:06.521Z,100385.38
2018-04-15T21:17:34.172Z,100377.17
2018-04-15T21:20:01.778Z,100386.16
2018-04-15T21:22:29.420Z,100387.59
2018-04-15T21:24:57.025Z,100395.08
2018-04-15T21:27:24.659Z,100393.69
2018-04-15T21:29:52.253Z,100395.18
2018-04-15T21:32:19.904Z,100397.19
2018-04-15T21:34:47.509Z,100400.32
2018-04-15T21:37:15.155Z,100398.34
2018-04-15T21:39:42.753Z,100405.36
2018-04-15T21:42:10.386Z,100394.02
2018-04-15T21:44:37.997Z,100390.44
2018-04-15T21:47:05.589Z,100384.10
2018-04-15T21:49:33.197Z,100389.44
2018-04-15T21:52:00.892Z,100382.72
2018-04-15T21:54:28.489Z,100377.93
2018-04-15T21:56:56.117Z,100371.67
2018-04-15T21:59:23.712Z,100375.77
2018-04-15T22:01:51.315Z,100384.19
2018-04-15T22:04:18.918Z,100386.16
2018-04-15T22:06:46.529Z,100383.80
2018-04-15T22:09:14.169Z,100386.30
2018-04-15T22:11:53.435Z,100380.04
2018-04-15T22:14:21.035Z,100388.41
2018-04-15T22:16:48.685Z,100392.36
2018-04-15T22:19:16.329Z,100383.24
2018-04-15T22:21:43.925Z,100398.31
2018-04-15T22:24:11.562Z,100393.37
2018-04-15T22:26:39.193Z,100392.09
2018-04-15T22:29:06.841Z,100389.23
2018-04-15T22:31:34.444Z,100387.97
2018-04-15T22:34:02.087Z,100389.05
2018-04-15T22:36:29.677Z,100382.70
2018-04-15T22:38:57.312Z,100370.66
2018-04-15T22:41:24.924Z,100371.36
2018-04-15T22:43:52.605Z,100367.73
2018-04-15T22:46:20.217Z,100358.63
2018-04-15T22:48:47.866Z,100346.98
2018-04-15T22:51:15.457Z,100343.08
2018-04-15T22:53:43.095Z,100346.84
2018-04-15T22:56:10.727Z,100355.47
2018-04-15T22:58:44.025Z,100355.31
2018-04-15T23:01:11.637Z,100361.78
2018-04-15T23:03:39.243Z,100357.02
2018-04-15T23:06:06.876Z,100353.66
2018-04-15T23:08:34.473Z,100348.12
2018-04-15T23:11:02.093Z,100355.11
2018-04-15T23:13:29.754Z,100359.19
2018-04-15T23:15:57.388Z,100355.08
2018-04-15T23:18:25.009Z,100354.58
2018-04-15T23:20:52.737Z,100348.48
2018-04-15T23:23:20.333Z,100340.39
2018-04-15T23:25:47.949Z,100328.47
2018-04-15T23:28:15.581Z,100327.72
2018-04-15T23:30:43.181Z,100329.79
2018-04-15T23:33:10.769Z,100323.41
2018-04-15T23:35:38.408Z,100322.08
2018-04-15T23:38:06.002Z,100319.22
2018-04-15T23:40:33.605Z,100320.05
2018-04-15T23:43:02.824Z,100321.19
2018-04-15T23:45:30.467Z,100309.23
2018-04-15T23:47:58.070Z,100304.13
2018-04-15T23:50:25.666Z,100307.23
2018-04-15T23:52:53.273Z,100311.87
2018-04-15T23:55:20.912Z,100309.91
2018-04-15T23:57:48.517Z,100304.80
